createdAt,value
2023-03-05T00:02:49.010Z,-0.22
2023-03-05T00:05:56.728Z,-0.77
2023-03-05T00:08:58.973Z,-0.79
2023-03-05T00:12:00.655Z,-0.89
2023-03-05T00:15:02.372Z,-0.85
2023-03-05T00:18:04.137Z,-0.77
2023-03-05T00:21:17.388Z,-0.83
2023-03-05T00:24:19.053Z,-0.80
2023-03-05T00:27:20.763Z,-0.84
2023-03-05T00:30:22.433Z,-0.81
2023-03-05T00:33:24.061Z,-0.77
2023-03-05T00:36:25.923Z,-0.78
2023-03-05T00:39:27.668Z,-0.96
2023-03-05T00:42:29.362Z,-1.07
2023-03-05T00:45:31.171Z,-1.14
2023-03-05T00:48:32.849Z,-1.11
2023-03-05T00:51:34.882Z,-1.30
2023-03-05T00:54:36.541Z,-1.20
2023-03-05T00:57:38.197Z,-0.67
2023-03-05T01:00:40.244Z,-0.94
2023-03-05T01:03:42.307Z,-1.40
2023-03-05T01:06:46.208Z,-1.56
2023-03-05T01:09:47.866Z,-1.57
2023-03-05T01:12:49.864Z,-1.10
2023-03-05T01:15:51.697Z,-0.49
2023-03-05T01:18:53.461Z,-0.62
2023-03-05T01:21:55.212Z,-1.12
2023-03-05T01:24:56.986Z,-1.22
2023-03-05T01:27:58.810Z,-1.32
2023-03-05T01:31:00.473Z,-1.21
2023-03-05T01:34:02.585Z,-0.78
2023-03-05T01:37:04.294Z,-0.41
2023-03-05T01:40:06.664Z,-0.56
2023-03-05T01:43:30.764Z,-0.79
2023-03-05T01:46:37.427Z,-0.26
2023-03-05T01:49:41.463Z,-0.52
2023-03-05T01:52:54.900Z,-0.72
2023-03-05T01:55:57.318Z,-0.48
2023-03-05T01:59:03.683Z,-0.44
2023-03-05T02:02:08.054Z,-0.08
2023-03-05T02:05:32.677Z,-0.40
2023-03-05T02:08:34.416Z,-0.66
2023-03-05T02:11:36.763Z,-0.50
2023-03-05T02:14:41.525Z,-0.44
2023-03-05T02:17:43.528Z,-0.50
2023-03-05T02:20:51.054Z,-0.79
2023-03-05T02:23:52.566Z,-0.90
2023-03-05T02:26:54.418Z,-0.96
2023-03-05T02:29:56.067Z,-0.89
2023-03-05T02:32:58.192Z,-0.92
2023-03-05T02:35:59.912Z,-0.89
2023-03-05T02:39:01.911Z,-0.77
2023-03-05T02:42:04.048Z,-0.68
2023-03-05T02:45:06.144Z,-0.63
2023-03-05T02:48:07.886Z,-0.82
2023-03-05T02:51:10.714Z,-0.94
2023-03-05T02:54:12.494Z,-1.46
2023-03-05T02:57:14.141Z,-1.55
2023-03-05T03:00:16.575Z,-1.70
2023-03-05T03:03:18.508Z,-1.71
2023-03-05T03:06:20.285Z,-1.62
2023-03-05T03:09:22.004Z,-1.57
2023-03-05T03:12:23.647Z,-1.46
2023-03-05T03:15:25.306Z,-1.43
2023-03-05T03:18:27.196Z,-1.54
2023-03-05T03:21:29.092Z,-1.49
2023-03-05T03:24:31.729Z,-1.47
2023-03-05T03:27:33.630Z,-1.42
2023-03-05T03:30:35.367Z,-1.37
2023-03-05T03:33:37.085Z,-1.26
2023-03-05T03:36:39.038Z,-1.23
2023-03-05T03:39:40.747Z,-1.21
2023-03-05T03:42:42.401Z,-1.17
2023-03-05T03:45:44.190Z,-1.20
2023-03-05T03:48:49.506Z,-1.22
2023-03-05T03:51:52.657Z,-1.21
2023-03-05T03:54:55.831Z,-1.21
2023-03-05T03:57:57.500Z,-1.18
2023-03-05T04:00:59.149Z,-1.17
2023-03-05T04:04:01.067Z,-1.15
2023-03-05T04:07:02.849Z,-1.15
2023-03-05T04:10:04.763Z,-1.08
2023-03-05T04:13:06.988Z,-1.12
2023-03-05T04:16:08.766Z,-1.16
2023-03-05T04:19:10.459Z,-1.20
2023-03-05T04:22:14.337Z,-1.15
2023-03-05T04:25:16.080Z,-1.44
2023-03-05T04:28:17.986Z,-1.55
2023-03-05T04:31:20.719Z,-1.55
2023-03-05T04:34:22.477Z,-1.58
2023-03-05T04:37:25.539Z,-1.19
2023-03-05T04:40:27.164Z,-1.35
2023-03-05T04:43:28.792Z,-1.26
2023-03-05T04:46:30.570Z,-1.13
2023-03-05T04:49:32.362Z,-1.13
2023-03-05T04:52:34.300Z,-1.13
2023-03-05T04:55:36.223Z,-1.14
2023-03-05T04:58:38.068Z,-1.00
2023-03-05T05:01:39.958Z,-0.87
2023-03-05T05:04:45.152Z,-0.70
2023-03-05T05:07:47.275Z,-0.67
2023-03-05T05:11:03.603Z,-0.61
2023-03-05T05:14:05.344Z,-0.49
2023-03-05T05:17:07.188Z,-0.29
2023-03-05T05:20:11.561Z,-0.17
2023-03-05T05:23:13.350Z,0.02
2023-03-05T05:26:15.276Z,0.14
2023-03-05T05:29:17.116Z,0.32
2023-03-05T05:32:22.330Z,0.43
2023-03-05T05:35:24.179Z,0.53
2023-03-05T05:38:25.900Z,0.64
2023-03-05T05:41:27.539Z,0.75
2023-03-05T05:44:29.409Z,0.84
2023-03-05T05:47:31.077Z,0.91
2023-03-05T05:50:32.746Z,0.93
2023-03-05T05:53:34.526Z,1.00
2023-03-05T05:56:37.228Z,1.05
2023-03-05T05:59:39.270Z,1.05
2023-03-05T06:02:42.083Z,1.08
2023-03-05T06:05:43.982Z,1.11
2023-03-05T06:08:46.092Z,1.22
2023-03-05T06:11:47.943Z,1.23
2023-03-05T06:14:49.831Z,1.26
2023-03-05T06:17:52.869Z,1.24
2023-03-05T06:20:59.612Z,1.31
2023-03-05T06:24:01.268Z,1.34
2023-03-05T06:27:04.163Z,1.43
2023-03-05T06:30:07.250Z,1.44
2023-03-05T06:33:09.116Z,1.49
2023-03-05T06:36:16.873Z,1.53
2023-03-05T06:39:18.683Z,1.60
2023-03-05T06:42:21.448Z,1.69
2023-03-05T06:45:23.266Z,1.77
2023-03-05T06:48:25.302Z,1.78
2023-03-05T06:51:32.971Z,1.80
2023-03-05T06:54:34.747Z,1.85
2023-03-05T06:57:39.370Z,1.86
2023-03-05T07:00:41.609Z,1.92
2023-03-05T07:03:43.804Z,2.03
2023-03-05T07:06:46.189Z,2.03
2023-03-05T07:09:50.334Z,2.08
2023-03-05T07:12:52.042Z,2.17
2023-03-05T07:15:54.287Z,2.22
2023-03-05T07:18:58.604Z,2.31
2023-03-05T07:22:00.262Z,2.52
2023-03-05T07:25:01.936Z,2.64
2023-03-05T07:28:08.381Z,2.70
2023-03-05T07:31:17.955Z,2.72
2023-03-05T07:34:20.196Z,2.83
2023-03-05T07:37:21.833Z,2.91
2023-03-05T07:40:23.595Z,2.98
2023-03-05T07:43:25.212Z,3.04
2023-03-05T07:46:30.236Z,3.19
2023-03-05T07:49:31.963Z,3.42
2023-03-05T07:52:33.769Z,3.59
2023-03-05T07:55:35.607Z,3.84
2023-03-05T07:58:37.593Z,3.89
2023-03-05T08:01:39.777Z,4.05
2023-03-05T08:04:43.295Z,4.01
2023-03-05T08:07:45.017Z,4.03
2023-03-05T08:10:46.842Z,4.53
2023-03-05T08:13:48.591Z,4.50
2023-03-05T08:16:52.325Z,4.51
2023-03-05T08:19:57.692Z,4.38
2023-03-05T08:22:59.304Z,5.02
2023-03-05T08:26:00.938Z,5.96
2023-03-05T08:29:03.404Z,5.78
2023-03-05T08:32:05.482Z,6.16
2023-03-05T08:35:07.770Z,5.30
2023-03-05T08:38:09.550Z,5.14
2023-03-05T08:41:11.469Z,4.90
2023-03-05T08:44:13.130Z,4.64
2023-03-05T08:47:14.851Z,4.87
2023-03-05T08:50:17.964Z,4.75
2023-03-05T08:53:19.580Z,4.67
2023-03-05T08:56:21.578Z,4.68
2023-03-05T08:59:23.365Z,4.55
2023-03-05T09:02:25.063Z,4.45
2023-03-05T09:05:26.719Z,4.54
2023-03-05T09:08:29.307Z,4.54
2023-03-05T09:11:31.014Z,4.44
2023-03-05T09:14:32.661Z,4.37
2023-03-05T09:17:38.761Z,4.25
2023-03-05T09:20:40.432Z,4.24
2023-03-05T09:23:43.284Z,4.50
2023-03-05T09:26:45.037Z,4.28
2023-03-05T09:29:46.819Z,4.08
2023-03-05T09:32:48.496Z,4.23
2023-03-05T09:35:50.291Z,4.30
2023-03-05T09:38:52.519Z,4.35
2023-03-05T09:42:15.578Z,4.44
2023-03-05T09:45:28.658Z,4.43
2023-03-05T09:48:48.076Z,4.40
2023-03-05T09:51:54.715Z,4.45
2023-03-05T09:54:57.957Z,4.31
2023-03-05T09:58:06.427Z,4.38
2023-03-05T10:01:15.553Z,4.52
2023-03-05T10:04:28.793Z,4.44
2023-03-05T10:07:33.848Z,4.37
2023-03-05T10:10:47.373Z,4.50
2023-03-05T10:13:50.677Z,4.43
2023-03-05T10:17:01.772Z,4.37
2023-03-05T10:20:07.428Z,4.34
2023-03-05T10:23:09.239Z,4.35
2023-03-05T10:26:39.153Z,4.39
2023-03-05T10:29:55.723Z,4.49
2023-03-05T10:33:35.772Z,4.44
2023-03-05T10:36:52.400Z,4.39
2023-03-05T10:40:16.216Z,4.45
2023-03-05T10:43:45.701Z,4.57
2023-03-05T10:46:49.267Z,4.62
2023-03-05T10:49:54.380Z,4.83
2023-03-05T10:53:08.285Z,4.76
2023-03-05T10:56:12.286Z,4.66
2023-03-05T10:59:14.177Z,4.60
2023-03-05T11:02:16.398Z,4.62
2023-03-05T11:06:00.355Z,4.65
2023-03-05T11:09:21.030Z,4.66
2023-03-05T11:12:27.076Z,4.74
2023-03-05T11:15:30.800Z,4.83
2023-03-05T11:18:36.751Z,4.95
2023-03-05T11:21:38.788Z,5.08
2023-03-05T11:24:42.165Z,5.14
2023-03-05T11:27:54.549Z,5.32
2023-03-05T11:31:02.882Z,5.24
2023-03-05T11:34:21.433Z,5.27
2023-03-05T11:37:29.244Z,5.41
2023-03-05T11:40:32.997Z,5.80
2023-03-05T11:43:38.228Z,5.71
2023-03-05T11:46:54.464Z,5.63
2023-03-05T11:50:12.778Z,5.45
2023-03-05T11:53:32.295Z,5.42
2023-03-05T11:56:37.636Z,5.37
2023-03-05T11:59:40.375Z,5.60
2023-03-05T12:02:43.423Z,5.59
2023-03-05T12:05:49.672Z,5.75
2023-03-05T12:08:57.623Z,5.86
2023-03-05T12:12:22.058Z,5.67
2023-03-05T12:15:35.025Z,5.82
2023-03-05T12:19:03.103Z,5.59
2023-03-05T12:22:15.415Z,5.61
2023-03-05T12:25:30.153Z,5.87
2023-03-05T12:28:31.914Z,5.61
2023-03-05T12:31:40.354Z,5.56
2023-03-05T12:34:44.280Z,5.62
2023-03-05T12:37:51.758Z,5.64
2023-03-05T12:40:53.948Z,5.95
2023-03-05T12:44:07.791Z,6.03
2023-03-05T12:47:12.881Z,5.82
2023-03-05T12:50:29.860Z,5.79
2023-03-05T12:53:31.815Z,5.74
2023-03-05T12:56:36.396Z,5.85
2023-03-05T12:59:50.468Z,5.63
2023-03-05T13:02:58.791Z,5.62
2023-03-05T13:06:01.614Z,5.39
2023-03-05T13:09:27.843Z,5.57
2023-03-05T13:12:31.338Z,5.48
2023-03-05T13:15:34.857Z,5.43
2023-03-05T13:18:41.427Z,5.54
2023-03-05T13:21:46.718Z,5.73
2023-03-05T13:24:48.828Z,5.72
2023-03-05T13:27:52.251Z,5.77
2023-03-05T13:31:02.810Z,5.77
2023-03-05T13:34:26.554Z,5.69
2023-03-05T13:37:37.505Z,5.50
2023-03-05T13:40:41.755Z,5.74
2023-03-05T13:43:53.157Z,5.81
2023-03-05T13:47:10.944Z,6.00
2023-03-05T13:50:24.844Z,6.29
2023-03-05T13:53:31.891Z,7.94
2023-03-05T13:56:34.219Z,9.24
2023-03-05T13:59:41.236Z,8.52
2023-03-05T14:02:44.757Z,6.83
2023-03-05T14:05:48.080Z,6.29
2023-03-05T14:08:59.557Z,5.77
2023-03-05T14:12:07.399Z,5.65
2023-03-05T14:15:34.973Z,5.57
2023-03-05T14:18:39.799Z,5.49
2023-03-05T14:21:51.349Z,5.28
2023-03-05T14:24:53.894Z,5.29
2023-03-05T14:27:57.604Z,5.15
2023-03-05T14:31:00.630Z,5.05
2023-03-05T14:34:07.331Z,5.03
2023-03-05T14:37:40.125Z,5.03
2023-03-05T14:40:42.716Z,4.94
2023-03-05T14:43:45.228Z,4.77
2023-03-05T14:46:52.207Z,4.71
2023-03-05T14:49:54.645Z,4.67
2023-03-05T14:53:01.008Z,4.53
2023-03-05T14:56:03.590Z,4.51
2023-03-05T14:59:06.250Z,4.53
2023-03-05T15:02:16.130Z,4.52
2023-03-05T15:05:19.398Z,4.50
2023-03-05T15:08:25.952Z,4.49
2023-03-05T15:11:31.204Z,4.54
2023-03-05T15:14:33.914Z,4.48
2023-03-05T15:17:39.201Z,4.46
2023-03-05T15:20:41.816Z,4.41
2023-03-05T15:23:45.498Z,4.41
2023-03-05T15:26:50.143Z,4.36
2023-03-05T15:29:53.247Z,4.30
2023-03-05T15:32:57.254Z,4.25
2023-03-05T15:36:00.180Z,4.24
2023-03-05T15:39:02.428Z,4.23
2023-03-05T15:42:06.369Z,4.22
2023-03-05T15:45:09.617Z,4.14
2023-03-05T15:48:14.070Z,4.25
2023-03-05T15:51:18.036Z,4.15
2023-03-05T15:54:20.418Z,4.16
2023-03-05T15:57:27.330Z,4.05
2023-03-05T16:00:32.007Z,4.10
2023-03-05T16:03:34.742Z,3.99
2023-03-05T16:06:37.796Z,3.93
2023-03-05T16:09:44.965Z,3.91
2023-03-05T16:12:51.244Z,3.89
2023-03-05T16:15:56.002Z,3.81
2023-03-05T16:19:03.639Z,3.79
2023-03-05T16:22:07.951Z,3.80
2023-03-05T16:25:10.601Z,3.80
2023-03-05T16:28:13.212Z,3.80
2023-03-05T16:31:15.961Z,3.69
2023-03-05T16:34:18.996Z,3.66
2023-03-05T16:37:24.315Z,3.55
2023-03-05T16:40:38.698Z,3.50
2023-03-05T16:43:50.208Z,3.46
2023-03-05T16:46:54.086Z,3.54
2023-03-05T16:49:56.656Z,3.51
2023-03-05T16:52:59.326Z,3.47
2023-03-05T16:56:06.455Z,3.41
2023-03-05T16:59:10.771Z,3.30
2023-03-05T17:02:15.764Z,3.13
2023-03-05T17:05:18.783Z,3.04
2023-03-05T17:08:23.171Z,3.02
2023-03-05T17:11:26.510Z,3.04
2023-03-05T17:14:30.821Z,3.03
2023-03-05T17:17:33.840Z,3.03
2023-03-05T17:20:37.201Z,3.06
2023-03-05T17:23:40.647Z,3.04
2023-03-05T17:26:46.466Z,3.00
2023-03-05T17:29:50.669Z,2.91
2023-03-05T17:32:55.749Z,2.83
2023-03-05T17:35:59.034Z,2.78
2023-03-05T17:39:01.988Z,2.71
2023-03-05T17:42:04.783Z,2.69
2023-03-05T17:45:10.286Z,2.66
2023-03-05T17:48:13.881Z,2.65
2023-03-05T17:51:17.491Z,2.63
2023-03-05T17:54:20.614Z,2.59
2023-03-05T17:57:23.677Z,2.58
2023-03-05T18:00:29.436Z,2.51
2023-03-05T18:03:31.898Z,2.49
2023-03-05T18:06:34.315Z,2.35
2023-03-05T18:09:37.289Z,2.31
2023-03-05T18:12:41.265Z,2.17
2023-03-05T18:15:48.092Z,2.17
2023-03-05T18:18:50.341Z,2.26
2023-03-05T18:21:52.687Z,2.01
2023-03-05T18:24:55.767Z,1.96
2023-03-05T18:28:05.290Z,1.91
2023-03-05T18:31:08.966Z,1.81
2023-03-05T18:34:13.166Z,1.78
2023-03-05T18:37:15.792Z,1.75
2023-03-05T18:40:29.662Z,1.82
2023-03-05T18:43:32.338Z,1.84
2023-03-05T18:46:35.518Z,1.81
2023-03-05T18:49:38.550Z,1.88
2023-03-05T18:52:42.087Z,1.89
2023-03-05T18:55:46.035Z,1.92
2023-03-05T18:58:48.980Z,1.96
2023-03-05T19:01:51.932Z,2.01
2023-03-05T19:04:54.342Z,1.99
2023-03-05T19:07:59.158Z,2.03
2023-03-05T19:11:02.370Z,2.12
2023-03-05T19:14:06.524Z,2.20
2023-03-05T19:17:08.999Z,2.07
2023-03-05T19:20:14.041Z,1.90
2023-03-05T19:23:16.669Z,1.84
2023-03-05T19:26:19.252Z,1.75
2023-03-05T19:29:24.572Z,1.66
2023-03-05T19:32:27.756Z,1.65
2023-03-05T19:35:30.597Z,1.62
2023-03-05T19:38:32.777Z,1.54
2023-03-05T19:41:37.362Z,1.61
2023-03-05T19:44:39.516Z,1.60
2023-03-05T19:47:42.885Z,1.58
2023-03-05T19:50:45.554Z,1.59
2023-03-05T19:53:50.263Z,1.50
2023-03-05T19:56:55.141Z,1.39
2023-03-05T19:59:58.766Z,1.37
2023-03-05T20:03:01.590Z,1.43
2023-03-05T20:06:04.320Z,1.36
2023-03-05T20:09:08.077Z,1.21
2023-03-05T20:12:13.992Z,1.13
2023-03-05T20:15:17.686Z,1.27
2023-03-05T20:18:20.325Z,0.91
2023-03-05T20:21:27.846Z,0.78
2023-03-05T20:24:30.237Z,1.02
2023-03-05T20:27:34.662Z,0.74
2023-03-05T20:30:37.688Z,0.69
2023-03-05T20:33:40.844Z,0.87
2023-03-05T20:36:43.890Z,0.83
2023-03-05T20:39:46.041Z,1.02
2023-03-05T20:42:48.807Z,0.78
2023-03-05T20:45:53.704Z,0.80
2023-03-05T20:48:59.989Z,0.90
2023-03-05T20:52:02.620Z,0.74
2023-03-05T20:55:07.388Z,0.61
2023-03-05T20:58:10.836Z,0.65
2023-03-05T21:01:13.630Z,0.67
2023-03-05T21:04:16.894Z,0.58
2023-03-05T21:07:19.381Z,0.37
2023-03-05T21:10:23.453Z,0.42
2023-03-05T21:13:26.347Z,0.30
2023-03-05T21:16:28.572Z,0.43
2023-03-05T21:19:34.522Z,0.40
2023-03-05T21:22:37.081Z,0.71
2023-03-05T21:25:39.950Z,0.77
2023-03-05T21:28:42.652Z,0.63
2023-03-05T21:31:46.150Z,0.59
2023-03-05T21:34:48.181Z,0.39
2023-03-05T21:37:50.562Z,0.23
2023-03-05T21:40:54.073Z,0.43
2023-03-05T21:43:56.354Z,0.58
2023-03-05T21:46:59.829Z,0.52
2023-03-05T21:50:01.698Z,0.43
2023-03-05T21:53:03.532Z,0.53
2023-03-05T21:56:22.197Z,0.35
2023-03-05T21:59:23.974Z,0.52
2023-03-05T22:02:26.072Z,0.28
2023-03-05T22:05:27.882Z,0.21
2023-03-05T22:08:32.719Z,0.45
2023-03-05T22:11:34.404Z,0.59
2023-03-05T22:14:36.415Z,0.54
2023-03-05T22:17:38.085Z,0.51
2023-03-05T22:20:40.205Z,0.35
2023-03-05T22:23:41.857Z,0.41
2023-03-05T22:26:43.581Z,0.29
2023-03-05T22:29:45.288Z,0.25
2023-03-05T22:32:46.886Z,0.22
2023-03-05T22:35:48.572Z,0.41
2023-03-05T22:38:50.792Z,0.44
2023-03-05T22:41:52.480Z,0.45
2023-03-05T22:44:57.788Z,0.50
2023-03-05T22:47:59.756Z,0.57
2023-03-05T22:51:01.461Z,0.39
2023-03-05T22:54:03.104Z,0.45
2023-03-05T22:57:05.410Z,0.52
2023-03-05T23:00:14.323Z,0.49
2023-03-05T23:03:16.316Z,0.55
2023-03-05T23:06:17.963Z,0.53
2023-03-05T23:09:19.646Z,0.64
2023-03-05T23:12:21.450Z,0.64
2023-03-05T23:15:29.782Z,0.82
2023-03-05T23:18:32.037Z,0.60
2023-03-05T23:21:33.698Z,0.81
2023-03-05T23:24:36.567Z,0.68
2023-03-05T23:27:38.384Z,0.71
2023-03-05T23:30:40.049Z,0.60
2023-03-05T23:33:41.765Z,0.68
2023-03-05T23:36:43.396Z,0.74
2023-03-05T23:39:45.029Z,0.79
2023-03-05T23:42:46.761Z,0.61
2023-03-05T23:45:49.464Z,0.70
2023-03-05T23:48:51.114Z,0.62
2023-03-05T23:51:53.369Z,0.71
2023-03-05T23:54:55.427Z,0.76
2023-03-05T23:57:57.142Z,0.76
